sensor_id;sensor_type;location;lat;lon;timestamp;P1;durP1;ratioP1;P2;durP2;ratioP2
51491;SDS011;37569;50.548;8.778;2023-04-24T00:04:22;4.1;;;2.8;;
51491;SDS011;37569;50.548;8.778;2023-04-24T00:09:22;4.1;;;2.4;;
51491;SDS011;37569;50.548;8.778;2023-04-24T00:14:23;2.9;;;1.7;;
51491;SDS011;37569;50.548;8.778;2023-04-24T00:19:23;3.4;;;1.9;;
51491;SDS011;37569;50.548;8.778;2023-04-24T00:24:24;3.4;;;1.9;;
51491;SDS011;37569;50.548;8.778;2023-04-24T00:29:24;2.4;;;1.9;;
51491;SDS011;37569;50.548;8.778;2023-04-24T00:34:24;3.1;;;1.9;;
51491;SDS011;37569;50.548;8.778;2023-04-24T00:39:25;3.5;;;2.1;;
51491;SDS011;37569;50.548;8.778;2023-04-24T00:44:25;3.5;;;2.2;;
51491;SDS011;37569;50.548;8.778;2023-04-24T00:49:26;3.3;;;2.1;;
51491;SDS011;37569;50.548;8.778;2023-04-24T00:54:26;2.8;;;2.1;;
51491;SDS011;37569;50.548;8.778;2023-04-24T00:59:27;2.5;;;2.3;;
51491;SDS011;37569;50.548;8.778;2023-04-24T01:04:27;2.9;;;2.1;;
51491;SDS011;37569;50.548;8.778;2023-04-24T01:09:27;4.2;;;2.7;;
51491;SDS011;37569;50.548;8.778;2023-04-24T01:14:28;3.1;;;2;;
51491;SDS011;37569;50.548;8.778;2023-04-24T01:19:28;4.2;;;2.1;;
51491;SDS011;37569;50.548;8.778;2023-04-24T01:24:29;3.6;;;2.5;;
51491;SDS011;37569;50.548;8.778;2023-04-24T01:29:29;3.8;;;2.1;;
51491;SDS011;37569;50.548;8.778;2023-04-24T01:34:30;2.3;;;1.9;;
51491;SDS011;37569;50.548;8.778;2023-04-24T01:39:30;2.6;;;1.8;;
51491;SDS011;37569;50.548;8.778;2023-04-24T01:44:30;3;;;1.6;;
51491;SDS011;37569;50.548;8.778;2023-04-24T01:49:31;4.6;;;1.8;;
51491;SDS011;37569;50.548;8.778;2023-04-24T01:54:31;2.5;;;1.6;;
51491;SDS011;37569;50.548;8.778;2023-04-24T01:59:32;3.5;;;2.1;;
51491;SDS011;37569;50.548;8.778;2023-04-24T02:04:32;4.7;;;3.1;;
51491;SDS011;37569;50.548;8.778;2023-04-24T02:09:32;3.3;;;2.4;;
51491;SDS011;37569;50.548;8.778;2023-04-24T02:14:33;4.3;;;3;;
51491;SDS011;37569;50.548;8.778;2023-04-24T02:19:33;3.7;;;2;;
51491;SDS011;37569;50.548;8.778;2023-04-24T02:24:34;3.7;;;2.4;;
51491;SDS011;37569;50.548;8.778;2023-04-24T02:29:34;4.4;;;2.6;;
51491;SDS011;37569;50.548;8.778;2023-04-24T02:34:35;3.8;;;2.4;;
51491;SDS011;37569;50.548;8.778;2023-04-24T02:39:35;5.3;;;3.1;;
51491;SDS011;37569;50.548;8.778;2023-04-24T02:44:35;7.1;;;4.1;;
51491;SDS011;37569;50.548;8.778;2023-04-24T02:49:36;6.1;;;5.5;;
51491;SDS011;37569;50.548;8.778;2023-04-24T02:54:36;7.5;;;6.3;;
51491;SDS011;37569;50.548;8.778;2023-04-24T02:59:37;7.9;;;7.1;;
51491;SDS011;37569;50.548;8.778;2023-04-24T03:04:37;8.5;;;6.8;;
51491;SDS011;37569;50.548;8.778;2023-04-24T03:09:37;8;;;6.8;;
51491;SDS011;37569;50.548;8.778;2023-04-24T03:14:38;8.1;;;6.7;;
51491;SDS011;37569;50.548;8.778;2023-04-24T03:19:38;8.2;;;6;;
51491;SDS011;37569;50.548;8.778;2023-04-24T03:24:39;7.4;;;6.4;;
51491;SDS011;37569;50.548;8.778;2023-04-24T03:29:39;6.4;;;5.7;;
51491;SDS011;37569;50.548;8.778;2023-04-24T03:34:40;6.9;;;4.7;;
51491;SDS011;37569;50.548;8.778;2023-04-24T03:39:40;5;;;3.6;;
51491;SDS011;37569;50.548;8.778;2023-04-24T03:44:40;5.8;;;3.5;;
51491;SDS011;37569;50.548;8.778;2023-04-24T03:49:41;5;;;3.3;;
51491;SDS011;37569;50.548;8.778;2023-04-24T03:54:41;2.6;;;2.2;;
51491;SDS011;37569;50.548;8.778;2023-04-24T03:59:42;2.8;;;2;;
51491;SDS011;37569;50.548;8.778;2023-04-24T04:04:42;2.2;;;1.8;;
51491;SDS011;37569;50.548;8.778;2023-04-24T04:09:43;2.1;;;1.8;;
51491;SDS011;37569;50.548;8.778;2023-04-24T04:14:43;2.5;;;1.9;;
51491;SDS011;37569;50.548;8.778;2023-04-24T04:19:43;3.4;;;2;;
51491;SDS011;37569;50.548;8.778;2023-04-24T04:24:44;2.9;;;2.3;;
51491;SDS011;37569;50.548;8.778;2023-04-24T04:29:44;2.9;;;2.2;;
51491;SDS011;37569;50.548;8.778;2023-04-24T04:34:45;2.6;;;2.2;;
51491;SDS011;37569;50.548;8.778;2023-04-24T04:39:45;3.4;;;2.2;;
51491;SDS011;37569;50.548;8.778;2023-04-24T04:44:45;2.7;;;2.2;;
51491;SDS011;37569;50.548;8.778;2023-04-24T04:49:46;2.7;;;2;;
51491;SDS011;37569;50.548;8.778;2023-04-24T04:54:46;2.7;;;2.2;;
51491;SDS011;37569;50.548;8.778;2023-04-24T04:59:46;3;;;2.3;;
51491;SDS011;37569;50.548;8.778;2023-04-24T05:04:47;3.1;;;2.2;;
51491;SDS011;37569;50.548;8.778;2023-04-24T05:09:47;2.2;;;1.9;;
51491;SDS011;37569;50.548;8.778;2023-04-24T05:14:48;2.8;;;2.2;;
51491;SDS011;37569;50.548;8.778;2023-04-24T05:19:48;2.9;;;2;;
51491;SDS011;37569;50.548;8.778;2023-04-24T05:24:49;2.6;;;2;;
51491;SDS011;37569;50.548;8.778;2023-04-24T05:29:49;3.2;;;2.3;;
51491;SDS011;37569;50.548;8.778;2023-04-24T05:34:50;2.8;;;2;;
51491;SDS011;37569;50.548;8.778;2023-04-24T05:39:50;2.3;;;2.1;;
51491;SDS011;37569;50.548;8.778;2023-04-24T05:44:51;3.5;;;2;;
51491;SDS011;37569;50.548;8.778;2023-04-24T05:49:51;2.3;;;1.8;;
51491;SDS011;37569;50.548;8.778;2023-04-24T05:54:52;1.8;;;1.6;;
51491;SDS011;37569;50.548;8.778;2023-04-24T05:59:53;3.5;;;1.8;;
51491;SDS011;37569;50.548;8.778;2023-04-24T06:04:54;2;;;1.5;;
51491;SDS011;37569;50.548;8.778;2023-04-24T06:09:54;3;;;1.7;;
51491;SDS011;37569;50.548;8.778;2023-04-24T06:14:55;3.1;;;1.9;;
51491;SDS011;37569;50.548;8.778;2023-04-24T06:19:56;3.2;;;2;;
51491;SDS011;37569;50.548;8.778;2023-04-24T06:24:57;2.5;;;2.3;;
51491;SDS011;37569;50.548;8.778;2023-04-24T06:29:57;3.3;;;2.5;;
51491;SDS011;37569;50.548;8.778;2023-04-24T06:34:58;3.5;;;2.6;;
51491;SDS011;37569;50.548;8.778;2023-04-24T06:39:59;3.3;;;3;;
51491;SDS011;37569;50.548;8.778;2023-04-24T06:44:59;4.6;;;2.7;;
51491;SDS011;37569;50.548;8.778;2023-04-24T06:50:00;4.3;;;2.8;;
51491;SDS011;37569;50.548;8.778;2023-04-24T06:55:01;3;;;2.6;;
51491;SDS011;37569;50.548;8.778;2023-04-24T07:00:01;3.8;;;3.1;;
51491;SDS011;37569;50.548;8.778;2023-04-24T07:05:02;6;;;3.5;;
51491;SDS011;37569;50.548;8.778;2023-04-24T07:10:03;4.1;;;3.6;;
51491;SDS011;37569;50.548;8.778;2023-04-24T07:15:03;5.6;;;3.7;;
51491;SDS011;37569;50.548;8.778;2023-04-24T07:20:04;5.4;;;3.4;;
51491;SDS011;37569;50.548;8.778;2023-04-24T07:25:04;5.7;;;4;;
51491;SDS011;37569;50.548;8.778;2023-04-24T07:30:05;5.5;;;3.7;;
51491;SDS011;37569;50.548;8.778;2023-04-24T07:35:05;4.9;;;4.4;;
51491;SDS011;37569;50.548;8.778;2023-04-24T07:40:06;4.9;;;3.8;;
51491;SDS011;37569;50.548;8.778;2023-04-24T07:45:06;4;;;3.5;;
51491;SDS011;37569;50.548;8.778;2023-04-24T07:50:07;4.6;;;3.3;;
51491;SDS011;37569;50.548;8.778;2023-04-24T07:55:07;4.5;;;3.4;;
51491;SDS011;37569;50.548;8.778;2023-04-24T08:00:08;3.6;;;3;;
51491;SDS011;37569;50.548;8.778;2023-04-24T08:05:08;3.5;;;2.7;;
51491;SDS011;37569;50.548;8.778;2023-04-24T08:10:09;4.7;;;3.4;;
51491;SDS011;37569;50.548;8.778;2023-04-24T08:15:10;3.5;;;3.2;;
51491;SDS011;37569;50.548;8.778;2023-04-24T08:20:10;3.3;;;3;;
51491;SDS011;37569;50.548;8.778;2023-04-24T08:25:11;3.5;;;3;;
51491;SDS011;37569;50.548;8.778;2023-04-24T08:30:12;4;;;3;;
51491;SDS011;37569;50.548;8.778;2023-04-24T08:35:12;3.4;;;2.9;;
51491;SDS011;37569;50.548;8.778;2023-04-24T08:40:13;3.1;;;2.8;;
51491;SDS011;37569;50.548;8.778;2023-04-24T08:45:13;5;;;2.8;;
51491;SDS011;37569;50.548;8.778;2023-04-24T08:50:14;3.3;;;2.6;;
51491;SDS011;37569;50.548;8.778;2023-04-24T08:55:14;2.5;;;2.3;;
51491;SDS011;37569;50.548;8.778;2023-04-24T09:00:15;3.3;;;2.6;;
51491;SDS011;37569;50.548;8.778;2023-04-24T09:05:16;2.7;;;2.5;;
51491;SDS011;37569;50.548;8.778;2023-04-24T09:10:16;2.7;;;2.3;;
51491;SDS011;37569;50.548;8.778;2023-04-24T09:15:17;3;;;2.2;;
51491;SDS011;37569;50.548;8.778;2023-04-24T09:20:17;3.4;;;2.3;;
51491;SDS011;37569;50.548;8.778;2023-04-24T09:25:18;3.9;;;2.3;;
51491;SDS011;37569;50.548;8.778;2023-04-24T09:30:20;2.5;;;2.2;;
51491;SDS011;37569;50.548;8.778;2023-04-24T09:35:19;2.6;;;2;;
51491;SDS011;37569;50.548;8.778;2023-04-24T09:40:21;2.9;;;2.2;;
51491;SDS011;37569;50.548;8.778;2023-04-24T09:45:20;1.7;;;1.6;;
51491;SDS011;37569;50.548;8.778;2023-04-24T09:50:21;2.4;;;2;;
51491;SDS011;37569;50.548;8.778;2023-04-24T09:55:21;3.3;;;1.8;;
51491;SDS011;37569;50.548;8.778;2023-04-24T10:00:22;1.8;;;1.7;;
51491;SDS011;37569;50.548;8.778;2023-04-24T10:05:23;2.6;;;1.9;;
51491;SDS011;37569;50.548;8.778;2023-04-24T10:10:23;2.7;;;1.8;;
51491;SDS011;37569;50.548;8.778;2023-04-24T10:15:24;2;;;1.8;;
51491;SDS011;37569;50.548;8.778;2023-04-24T10:20:24;2;;;1.8;;
51491;SDS011;37569;50.548;8.778;2023-04-24T10:25:25;1.8;;;1.7;;
51491;SDS011;37569;50.548;8.778;2023-04-24T10:30:25;3;;;2;;
51491;SDS011;37569;50.548;8.778;2023-04-24T10:35:25;2.9;;;1.8;;
51491;SDS011;37569;50.548;8.778;2023-04-24T10:40:27;2.1;;;1.7;;
51491;SDS011;37569;50.548;8.778;2023-04-24T10:45:27;1.4;;;1.3;;
51491;SDS011;37569;50.548;8.778;2023-04-24T10:50:27;1.4;;;1;;
51491;SDS011;37569;50.548;8.778;2023-04-24T10:55:45;1.8;;;1.1;;
51491;SDS011;37569;50.548;8.778;2023-04-24T11:00:28;1.4;;;1.1;;
51491;SDS011;37569;50.548;8.778;2023-04-24T11:05:48;1.4;;;0.9;;
51491;SDS011;37569;50.548;8.778;2023-04-24T11:10:29;1.1;;;0.9;;
51491;SDS011;37569;50.548;8.778;2023-04-24T11:15:30;1.1;;;0.9;;
51491;SDS011;37569;50.548;8.778;2023-04-24T11:20:30;0.8;;;0.8;;
51491;SDS011;37569;50.548;8.778;2023-04-24T11:25:31;0.7;;;0.7;;
51491;SDS011;37569;50.548;8.778;2023-04-24T11:30:32;1.1;;;0.8;;
51491;SDS011;37569;50.548;8.778;2023-04-24T11:35:35;0.8;;;0.8;;
51491;SDS011;37569;50.548;8.778;2023-04-24T11:40:33;1.5;;;0.8;;
51491;SDS011;37569;50.548;8.778;2023-04-24T11:45:33;1.1;;;0.8;;
51491;SDS011;37569;50.548;8.778;2023-04-24T11:50:34;0.7;;;0.7;;
51491;SDS011;37569;50.548;8.778;2023-04-24T11:55:34;0.8;;;0.8;;
51491;SDS011;37569;50.548;8.778;2023-04-24T12:00:35;0.7;;;0.7;;
51491;SDS011;37569;50.548;8.778;2023-04-24T12:05:35;1;;;0.8;;
51491;SDS011;37569;50.548;8.778;2023-04-24T12:10:36;1.4;;;0.9;;
51491;SDS011;37569;50.548;8.778;2023-04-24T12:15:39;1.5;;;0.9;;
51491;SDS011;37569;50.548;8.778;2023-04-24T12:20:37;1.4;;;0.8;;
51491;SDS011;37569;50.548;8.778;2023-04-24T12:25:38;1;;;0.8;;
51491;SDS011;37569;50.548;8.778;2023-04-24T12:30:39;0.8;;;0.8;;
51491;SDS011;37569;50.548;8.778;2023-04-24T12:35:39;1.5;;;0.8;;
51491;SDS011;37569;50.548;8.778;2023-04-24T12:40:39;1;;;0.9;;
51491;SDS011;37569;50.548;8.778;2023-04-24T12:45:40;1.8;;;1.2;;
51491;SDS011;37569;50.548;8.778;2023-04-24T12:50:40;1.5;;;1.4;;
51491;SDS011;37569;50.548;8.778;2023-04-24T12:55:41;2;;;1.6;;
51491;SDS011;37569;50.548;8.778;2023-04-24T13:00:41;2.5;;;1.8;;
51491;SDS011;37569;50.548;8.778;2023-04-24T13:05:42;2.8;;;1.9;;
51491;SDS011;37569;50.548;8.778;2023-04-24T13:10:42;2.5;;;1.8;;
51491;SDS011;37569;50.548;8.778;2023-04-24T13:15:43;2.8;;;2;;
51491;SDS011;37569;50.548;8.778;2023-04-24T13:20:43;2.2;;;2;;
51491;SDS011;37569;50.548;8.778;2023-04-24T13:25:44;3;;;2.3;;
51491;SDS011;37569;50.548;8.778;2023-04-24T13:30:44;3.7;;;2.7;;
51491;SDS011;37569;50.548;8.778;2023-04-24T13:35:45;2.9;;;2.5;;
51491;SDS011;37569;50.548;8.778;2023-04-24T13:40:45;3.4;;;2.2;;
51491;SDS011;37569;50.548;8.778;2023-04-24T13:45:46;3.3;;;2.6;;
51491;SDS011;37569;50.548;8.778;2023-04-24T13:50:46;3.8;;;2.5;;
51491;SDS011;37569;50.548;8.778;2023-04-24T13:55:47;2.9;;;1.9;;
51491;SDS011;37569;50.548;8.778;2023-04-24T14:00:47;2.9;;;2.1;;
51491;SDS011;37569;50.548;8.778;2023-04-24T14:05:48;3.6;;;2.2;;
51491;SDS011;37569;50.548;8.778;2023-04-24T14:10:49;2.3;;;1.8;;
51491;SDS011;37569;50.548;8.778;2023-04-24T14:15:49;2.2;;;1.8;;
51491;SDS011;37569;50.548;8.778;2023-04-24T14:20:49;2.9;;;2;;
51491;SDS011;37569;50.548;8.778;2023-04-24T14:25:49;3.9;;;2.4;;
51491;SDS011;37569;50.548;8.778;2023-04-24T14:30:50;3.2;;;2.5;;
51491;SDS011;37569;50.548;8.778;2023-04-24T14:35:50;3.1;;;2.1;;
51491;SDS011;37569;50.548;8.778;2023-04-24T14:40:51;3;;;2.3;;
51491;SDS011;37569;50.548;8.778;2023-04-24T14:45:51;2.5;;;2.2;;
51491;SDS011;37569;50.548;8.778;2023-04-24T14:50:52;4;;;3;;
51491;SDS011;37569;50.548;8.778;2023-04-24T14:55:53;5.1;;;3;;
51491;SDS011;37569;50.548;8.778;2023-04-24T15:00:53;4.6;;;2.8;;
51491;SDS011;37569;50.548;8.778;2023-04-24T15:05:54;4.7;;;2.8;;
51491;SDS011;37569;50.548;8.778;2023-04-24T15:10:54;3.4;;;2.8;;
51491;SDS011;37569;50.548;8.778;2023-04-24T15:15:55;4.2;;;2.8;;
51491;SDS011;37569;50.548;8.778;2023-04-24T15:20:55;4.8;;;3.1;;
51491;SDS011;37569;50.548;8.778;2023-04-24T15:25:56;5;;;3.1;;
51491;SDS011;37569;50.548;8.778;2023-04-24T15:30:56;4;;;3;;
51491;SDS011;37569;50.548;8.778;2023-04-24T15:35:57;5.6;;;3.4;;
51491;SDS011;37569;50.548;8.778;2023-04-24T15:40:57;5.4;;;3.6;;
51491;SDS011;37569;50.548;8.778;2023-04-24T15:45:58;4.5;;;3.7;;
51491;SDS011;37569;50.548;8.778;2023-04-24T15:50:58;5.6;;;3.8;;
51491;SDS011;37569;50.548;8.778;2023-04-24T15:55:59;6.7;;;3.6;;
51491;SDS011;37569;50.548;8.778;2023-04-24T16:00:59;5;;;3.6;;
51491;SDS011;37569;50.548;8.778;2023-04-24T16:06:00;7.1;;;3.6;;
51491;SDS011;37569;50.548;8.778;2023-04-24T16:11:00;5.3;;;3.8;;
51491;SDS011;37569;50.548;8.778;2023-04-24T16:16:01;4.8;;;3.9;;
51491;SDS011;37569;50.548;8.778;2023-04-24T16:21:01;5.3;;;3.8;;
51491;SDS011;37569;50.548;8.778;2023-04-24T16:26:02;7.2;;;3.8;;
51491;SDS011;37569;50.548;8.778;2023-04-24T16:31:02;6.8;;;4.2;;
51491;SDS011;37569;50.548;8.778;2023-04-24T16:36:03;6.1;;;4.1;;
51491;SDS011;37569;50.548;8.778;2023-04-24T16:41:03;7.3;;;4.4;;
51491;SDS011;37569;50.548;8.778;2023-04-24T16:46:04;4.8;;;3.9;;
51491;SDS011;37569;50.548;8.778;2023-04-24T16:51:04;4.6;;;3.6;;
51491;SDS011;37569;50.548;8.778;2023-04-24T16:56:05;5.9;;;3.5;;
51491;SDS011;37569;50.548;8.778;2023-04-24T17:01:05;5.1;;;3.5;;
51491;SDS011;37569;50.548;8.778;2023-04-24T17:06:05;7.3;;;3.7;;
51491;SDS011;37569;50.548;8.778;2023-04-24T17:11:06;5.8;;;3.9;;
51491;SDS011;37569;50.548;8.778;2023-04-24T17:16:06;5.4;;;3.9;;
51491;SDS011;37569;50.548;8.778;2023-04-24T17:21:07;6.6;;;4;;
51491;SDS011;37569;50.548;8.778;2023-04-24T17:26:07;7.1;;;4.8;;
51491;SDS011;37569;50.548;8.778;2023-04-24T17:31:08;6.6;;;4;;
51491;SDS011;37569;50.548;8.778;2023-04-24T17:36:08;7.5;;;4.2;;
51491;SDS011;37569;50.548;8.778;2023-04-24T17:41:08;4.7;;;3.8;;
51491;SDS011;37569;50.548;8.778;2023-04-24T17:46:09;6;;;4.4;;
51491;SDS011;37569;50.548;8.778;2023-04-24T17:51:09;5.2;;;4.1;;
51491;SDS011;37569;50.548;8.778;2023-04-24T17:56:10;5.2;;;4.1;;
51491;SDS011;37569;50.548;8.778;2023-04-24T18:01:10;7.2;;;4.6;;
51491;SDS011;37569;50.548;8.778;2023-04-24T18:06:10;5;;;4.5;;
51491;SDS011;37569;50.548;8.778;2023-04-24T18:11:11;7.2;;;5.1;;
51491;SDS011;37569;50.548;8.778;2023-04-24T18:16:11;8.4;;;4.8;;
51491;SDS011;37569;50.548;8.778;2023-04-24T18:21:12;8.3;;;5.3;;
51491;SDS011;37569;50.548;8.778;2023-04-24T18:26:12;7.6;;;5.2;;
51491;SDS011;37569;50.548;8.778;2023-04-24T18:31:12;7.6;;;4.8;;
51491;SDS011;37569;50.548;8.778;2023-04-24T18:36:13;7.3;;;5.2;;
51491;SDS011;37569;50.548;8.778;2023-04-24T18:41:13;6.5;;;4.8;;
51491;SDS011;37569;50.548;8.778;2023-04-24T18:46:14;5.5;;;4.7;;
51491;SDS011;37569;50.548;8.778;2023-04-24T18:51:14;5.9;;;4.9;;
51491;SDS011;37569;50.548;8.778;2023-04-24T18:56:15;5.8;;;4.8;;
51491;SDS011;37569;50.548;8.778;2023-04-24T19:01:15;8.4;;;5.3;;
51491;SDS011;37569;50.548;8.778;2023-04-24T19:06:15;8.1;;;5.1;;
51491;SDS011;37569;50.548;8.778;2023-04-24T19:11:16;8.7;;;5.8;;
51491;SDS011;37569;50.548;8.778;2023-04-24T19:16:16;6.2;;;5.2;;
51491;SDS011;37569;50.548;8.778;2023-04-24T19:21:17;9.3;;;6.3;;
51491;SDS011;37569;50.548;8.778;2023-04-24T19:26:17;9.9;;;6.7;;
51491;SDS011;37569;50.548;8.778;2023-04-24T19:31:18;9.2;;;6.4;;
51491;SDS011;37569;50.548;8.778;2023-04-24T19:36:18;8.7;;;5.8;;
51491;SDS011;37569;50.548;8.778;2023-04-24T19:41:18;6.6;;;5.4;;
51491;SDS011;37569;50.548;8.778;2023-04-24T19:46:19;7.6;;;5.8;;
51491;SDS011;37569;50.548;8.778;2023-04-24T19:51:19;8;;;5.4;;
51491;SDS011;37569;50.548;8.778;2023-04-24T19:56:20;7;;;5.4;;
51491;SDS011;37569;50.548;8.778;2023-04-24T20:01:20;6.1;;;5;;
51491;SDS011;37569;50.548;8.778;2023-04-24T20:06:21;6.9;;;5.2;;
51491;SDS011;37569;50.548;8.778;2023-04-24T20:11:21;6.2;;;5.1;;
51491;SDS011;37569;50.548;8.778;2023-04-24T20:16:21;7.7;;;5.4;;
51491;SDS011;37569;50.548;8.778;2023-04-24T20:21:22;7.7;;;5.4;;
51491;SDS011;37569;50.548;8.778;2023-04-24T20:26:22;6.9;;;5.9;;
51491;SDS011;37569;50.548;8.778;2023-04-24T20:31:23;6.5;;;5.7;;
51491;SDS011;37569;50.548;8.778;2023-04-24T20:36:23;7.5;;;5.8;;
51491;SDS011;37569;50.548;8.778;2023-04-24T20:41:23;7.1;;;5.8;;
51491;SDS011;37569;50.548;8.778;2023-04-24T20:46:24;8.7;;;6.4;;
51491;SDS011;37569;50.548;8.778;2023-04-24T20:51:24;8.1;;;6.6;;
51491;SDS011;37569;50.548;8.778;2023-04-24T20:56:25;7.5;;;6.7;;
51491;SDS011;37569;50.548;8.778;2023-04-24T21:01:25;9.4;;;7.5;;
51491;SDS011;37569;50.548;8.778;2023-04-24T21:06:25;8;;;6.7;;
51491;SDS011;37569;50.548;8.778;2023-04-24T21:11:26;9.3;;;6.9;;
51491;SDS011;37569;50.548;8.778;2023-04-24T21:16:26;9.1;;;7.2;;
51491;SDS011;37569;50.548;8.778;2023-04-24T21:21:26;9.1;;;7.1;;
51491;SDS011;37569;50.548;8.778;2023-04-24T21:26:27;10.3;;;7.2;;
51491;SDS011;37569;50.548;8.778;2023-04-24T21:31:27;8.5;;;7.1;;
51491;SDS011;37569;50.548;8.778;2023-04-24T21:36:28;9.3;;;7.5;;
51491;SDS011;37569;50.548;8.778;2023-04-24T21:41:28;9;;;7.4;;
51491;SDS011;37569;50.548;8.778;2023-04-24T21:46:29;8.3;;;7.4;;
51491;SDS011;37569;50.548;8.778;2023-04-24T21:51:29;9.3;;;7.8;;
51491;SDS011;37569;50.548;8.778;2023-04-24T21:56:29;10.3;;;7.9;;
51491;SDS011;37569;50.548;8.778;2023-04-24T22:01:30;10.1;;;8;;
51491;SDS011;37569;50.548;8.778;2023-04-24T22:06:30;11.6;;;8.5;;
51491;SDS011;37569;50.548;8.778;2023-04-24T22:11:31;10.4;;;8.3;;
51491;SDS011;37569;50.548;8.778;2023-04-24T22:16:31;11;;;8.7;;
51491;SDS011;37569;50.548;8.778;2023-04-24T22:21:31;10.6;;;8.6;;
51491;SDS011;37569;50.548;8.778;2023-04-24T22:26:32;12.2;;;8.9;;
51491;SDS011;37569;50.548;8.778;2023-04-24T22:31:32;11.8;;;8.6;;
51491;SDS011;37569;50.548;8.778;2023-04-24T22:36:33;10.9;;;8.6;;
51491;SDS011;37569;50.548;8.778;2023-04-24T22:41:33;11.6;;;8.8;;
51491;SDS011;37569;50.548;8.778;2023-04-24T22:46:34;10.3;;;8.7;;
51491;SDS011;37569;50.548;8.778;2023-04-24T22:51:34;12.6;;;8.4;;
51491;SDS011;37569;50.548;8.778;2023-04-24T22:56:34;10.3;;;8.2;;
51491;SDS011;37569;50.548;8.778;2023-04-24T23:01:35;11.1;;;9.3;;
51491;SDS011;37569;50.548;8.778;2023-04-24T23:06:35;11.7;;;8.4;;
51491;SDS011;37569;50.548;8.778;2023-04-24T23:11:36;12;;;9.5;;
51491;SDS011;37569;50.548;8.778;2023-04-24T23:16:36;10.9;;;8.7;;
51491;SDS011;37569;50.548;8.778;2023-04-24T23:21:36;11.5;;;8.8;;
51491;SDS011;37569;50.548;8.778;2023-04-24T23:26:37;12.5;;;9.4;;
51491;SDS011;37569;50.548;8.778;2023-04-24T23:31:37;12.4;;;9.5;;
51491;SDS011;37569;50.548;8.778;2023-04-24T23:36:37;13.2;;;10;;
51491;SDS011;37569;50.548;8.778;2023-04-24T23:41:38;14.7;;;10.1;;
51491;SDS011;37569;50.548;8.778;2023-04-24T23:46:38;15.6;;;10.5;;
51491;SDS011;37569;50.548;8.778;2023-04-24T23:51:39;15.2;;;10.7;;
51491;SDS011;37569;50.548;8.778;2023-04-24T23:56:39;13;;;10.8;;
